Time;durP1;ratioP1;P1;durP2;ratioP2;P2;SDS_P1;SDS_P2;PMS_P1;PMS_P2;Temp;Humidity;BMP_temperature;BMP_pressure;BME280_temperature;BME280_humidity;BME280_pressure;Samples;Min_cycle;Max_cycle;Signal;HPM_P1;HPM_P2
2022/04/07 00:01:09;;;;;;;2.67;1.20;;;;;;;8.13;95.68;99190.78;5061583;28;20382;-77
2022/04/07 00:03:35;;;;;;;4.57;1.38;;;;;;;8.27;95.44;99187.38;5055849;28;20032;-76
2022/04/07 00:06:01;;;;;;;6.40;1.75;;;;;;;8.14;95.93;99185.44;5044468;28;20153;-76
2022/04/07 00:08:27;;;;;;;4.97;1.50;;;;;;;8.13;95.99;99181.25;5026791;28;20545;-77
2022/04/07 00:10:52;;;;;;;2.95;1.35;;;;;;;8.10;96.11;99181.63;5057629;28;20261;-77
2022/04/07 00:13:18;;;;;;;3.30;2.00;;;;;;;8.15;95.75;99163.00;5050125;28;20531;-75
2022/04/07 00:15:44;;;;;;;3.17;2.08;;;;;;;8.23;95.57;99167.25;5062563;28;20086;-77
2022/04/07 00:18:09;;;;;;;5.38;2.05;;;;;;;8.20;95.34;99165.84;5045182;28;20040;-77
2022/04/07 00:20:35;;;;;;;5.55;2.33;;;;;;;8.22;95.17;99150.16;5043788;28;20045;-76
2022/04/07 00:23:03;;;;;;;10.25;2.88;;;;;;;8.14;94.91;99151.06;5042212;28;20043;-76
2022/04/07 00:25:30;;;;;;;4.43;2.60;;;;;;;8.24;94.27;99138.66;5038158;28;20198;-76
2022/04/07 00:27:56;;;;;;;6.40;2.60;;;;;;;8.14;94.76;99156.25;5059562;28;20043;-75
2022/04/07 00:30:22;;;;;;;5.38;2.20;;;;;;;8.11;94.56;99133.34;5044234;28;20064;-75
2022/04/07 00:32:49;;;;;;;4.10;2.40;;;;;;;8.16;94.10;99131.03;5032478;28;20094;-76
2022/04/07 00:35:14;;;;;;;6.93;3.13;;;;;;;8.21;93.52;99126.09;5034838;28;20486;-77
2022/04/07 00:37:40;;;;;;;6.18;2.38;;;;;;;8.22;93.40;99119.97;5061383;28;20035;-77
2022/04/07 00:40:08;;;;;;;3.45;1.90;;;;;;;8.25;92.41;99111.06;5045918;28;20467;-76
2022/04/07 00:42:34;;;;;;;7.15;1.90;;;;;;;8.31;91.93;99113.72;5033851;28;20040;-76
2022/04/07 00:45:00;;;;;;;9.85;2.00;;;;;;;8.35;91.44;99101.25;5047666;28;20028;-75
2022/04/07 00:47:27;;;;;;;6.00;1.98;;;;;;;8.26;91.70;99104.94;5046567;28;20647;-76
2022/04/07 00:49:53;;;;;;;6.55;2.00;;;;;;;8.21;91.75;99108.03;5042922;28;20029;-76
2022/04/07 00:52:19;;;;;;;9.00;2.15;;;;;;;8.27;91.62;99102.16;5062392;28;20055;-76
2022/04/07 00:54:45;;;;;;;5.60;1.85;;;;;;;8.26;91.06;99100.56;5043458;28;20032;-75
2022/04/07 00:57:11;;;;;;;8.57;1.95;;;;;;;8.29;90.69;99102.78;5050559;28;20489;-75
2022/04/07 00:59:39;;;;;;;3.97;1.63;;;;;;;8.22;91.13;99096.75;5029026;28;20588;-76
2022/04/07 01:02:06;;;;;;;3.97;1.40;;;;;;;8.26;90.98;99086.84;5062165;28;20025;-76
2022/04/07 01:04:32;;;;;;;5.47;1.45;;;;;;;8.36;90.06;99087.34;5024500;28;20460;-75
2022/04/07 01:06:58;;;;;;;5.28;1.40;;;;;;;8.38;90.19;99075.88;5039738;28;20534;-76
2022/04/07 01:09:24;;;;;;;7.88;1.80;;;;;;;8.36;89.57;99069.25;5062060;28;20037;-76
2022/04/07 01:11:51;;;;;;;10.85;1.58;;;;;;;8.37;89.43;99066.50;5058956;28;20032;-76
2022/04/07 01:14:16;;;;;;;5.00;1.42;;;;;;;8.40;88.83;99060.19;5062903;28;20127;-76
2022/04/07 01:16:43;;;;;;;6.00;1.35;;;;;;;8.41;89.04;99064.34;5040962;28;20029;-76
2022/04/07 01:19:08;;;;;;;4.30;1.50;;;;;;;8.36;89.11;99052.00;5030930;28;20028;-76
2022/04/07 01:21:36;;;;;;;2.65;1.13;;;;;;;8.43;88.92;99046.91;5058404;28;20489;-76
2022/04/07 01:24:06;;;;;;;6.63;1.80;;;;;;;8.55;88.53;99042.03;5042176;28;20043;-76
2022/04/07 01:26:49;;;;;;;6.70;2.35;;;;;;;8.50;87.81;99042.63;5062259;28;20036;-76
2022/04/07 01:29:16;;;;;;;8.43;1.50;;;;;;;8.51;87.64;99030.50;5061152;28;20480;-75
2022/04/07 01:31:42;;;;;;;2.95;1.20;;;;;;;8.60;87.63;99031.16;5042177;28;20043;-76
2022/04/07 01:34:12;;;;;;;9.63;2.17;;;;;;;8.60;87.94;99037.13;5028849;28;20040;-75
2022/04/07 01:36:41;;;;;;;3.85;1.45;;;;;;;8.61;87.58;99032.75;5028730;28;20746;-75
2022/04/07 01:39:09;;;;;;;3.63;1.50;;;;;;;8.53;88.00;99023.34;5064306;28;20036;-76
2022/04/07 01:41:39;;;;;;;4.05;1.40;;;;;;;8.63;87.48;99025.66;5059481;28;20043;-75
2022/04/07 01:44:04;;;;;;;3.85;1.45;;;;;;;8.51;87.92;99015.00;5040307;28;20040;-76
2022/04/07 01:46:31;;;;;;;5.70;1.40;;;;;;;8.63;88.67;99010.94;5038851;28;20036;-76
2022/04/07 01:48:58;;;;;;;2.35;1.17;;;;;;;8.55;88.34;99016.22;5058989;28;20021;-76
2022/04/07 01:51:24;;;;;;;7.32;1.48;;;;;;;8.62;88.45;99001.56;5059927;28;20032;-75
2022/04/07 01:53:50;;;;;;;6.57;1.40;;;;;;;8.72;87.67;98994.31;5039937;28;20059;-74
2022/04/07 01:56:18;;;;;;;3.80;1.60;;;;;;;8.69;88.50;99009.38;5059517;28;20071;-75
2022/04/07 01:58:45;;;;;;;3.33;1.30;;;;;;;8.72;88.57;98999.47;5045763;28;20052;-75
2022/04/07 02:01:11;;;;;;;4.35;1.40;;;;;;;8.77;88.19;99002.28;5026343;28;20538;-74
2022/04/07 02:03:36;;;;;;;5.53;1.40;;;;;;;8.68;88.94;98995.69;5039633;28;20036;-75
2022/04/07 02:06:17;;;;;;;3.22;1.48;;;;;;;8.70;89.73;98993.69;5042494;28;20633;-75
2022/04/07 02:08:44;;;;;;;2.40;1.38;;;;;;;8.68;89.82;98993.09;5040283;28;20723;-76
2022/04/07 02:11:10;;;;;;;5.13;1.92;;;;;;;8.61;91.35;98989.66;5040224;28;20063;-75
2022/04/07 02:13:40;;;;;;;3.78;1.70;;;;;;;8.57;91.75;98975.50;5041991;28;20028;-76
2022/04/07 02:16:09;;;;;;;5.55;2.55;;;;;;;8.64;91.49;98978.94;5057351;28;20074;-76
2022/04/07 02:18:36;;;;;;;9.93;1.60;;;;;;;8.60;91.91;98979.50;5041868;28;20424;-75
2022/04/07 02:21:03;;;;;;;5.15;1.73;;;;;;;8.65;91.42;98980.53;5057167;28;20159;-75
2022/04/07 02:23:28;;;;;;;4.72;1.92;;;;;;;8.65;91.77;98983.13;5053769;28;20485;-76
2022/04/07 02:25:54;;;;;;;4.80;1.67;;;;;;;8.61;91.72;98961.22;5021308;28;20090;-76
2022/04/07 02:28:20;;;;;;;6.28;1.85;;;;;;;8.62;91.62;98954.28;5038768;28;20478;-75
2022/04/07 02:30:47;;;;;;;5.90;2.10;;;;;;;8.60;92.18;98959.63;5041733;28;20413;-75
2022/04/07 02:33:12;;;;;;;3.53;1.58;;;;;;;8.53;92.96;98957.00;5040879;28;20040;-77
2022/04/07 02:35:38;;;;;;;10.50;2.30;;;;;;;8.61;93.54;98957.84;5042599;28;20036;-76
2022/04/07 02:38:04;;;;;;;7.18;1.80;;;;;;;8.65;92.79;98936.63;5032577;28;20062;-76
2022/04/07 02:40:29;;;;;;;5.88;1.80;;;;;;;8.56;92.75;98937.75;5027345;28;20153;-76
2022/04/07 02:42:55;;;;;;;13.63;2.05;;;;;;;8.58;93.21;98922.84;5028776;28;20424;-77
2022/04/07 02:45:20;;;;;;;3.25;1.42;;;;;;;8.51;93.82;98925.41;5064334;28;20040;-78
2022/04/07 02:47:46;;;;;;;5.43;2.67;;;;;;;8.49;93.42;98895.56;5059318;28;20075;-76
2022/04/07 02:50:11;;;;;;;6.75;1.58;;;;;;;8.53;92.66;98900.19;5041196;28;20039;-77
2022/04/07 02:52:37;;;;;;;6.07;2.08;;;;;;;8.65;91.55;98897.84;5022956;28;20028;-75
2022/04/07 02:55:03;;;;;;;6.22;1.83;;;;;;;8.65;91.55;98890.09;5040916;28;20489;-76
2022/04/07 02:57:31;;;;;;;6.10;2.08;;;;;;;8.64;91.10;98883.31;5037595;28;20086;-77
2022/04/07 02:59:58;;;;;;;6.15;2.15;;;;;;;8.61;90.76;98888.06;5029105;28;20602;-76
2022/04/07 03:02:24;;;;;;;6.55;2.00;;;;;;;8.65;90.50;98872.03;5044203;28;20409;-77
2022/04/07 03:04:50;;;;;;;7.72;2.15;;;;;;;8.72;89.98;98882.38;5041204;28;20588;-76
2022/04/07 03:07:15;;;;;;;8.80;2.00;;;;;;;8.72;89.45;98874.63;5045568;28;20029;-76
2022/04/07 03:09:41;;;;;;;9.30;3.10;;;;;;;8.70;88.90;98858.50;5041558;28;20566;-76
2022/04/07 03:12:07;;;;;;;4.35;1.20;;;;;;;8.80;88.62;98856.41;5055949;28;20666;-76
2022/04/07 03:14:32;;;;;;;6.78;1.52;;;;;;;8.79;88.41;98835.91;5042919;28;20089;-76
2022/04/07 03:16:58;;;;;;;8.75;1.95;;;;;;;8.76;88.20;98824.97;5038379;28;20041;-74
2022/04/07 03:19:24;;;;;;;5.43;1.17;;;;;;;8.86;87.32;98834.94;5062647;28;20051;-75
2022/04/07 03:21:49;;;;;;;7.88;1.30;;;;;;;8.90;86.73;98832.78;5028029;28;20488;-75
2022/04/07 03:24:15;;;;;;;8.82;1.85;;;;;;;8.95;86.14;98825.25;5040701;28;20035;-75
2022/04/07 03:26:40;;;;;;;6.25;1.60;;;;;;;8.88;85.97;98812.28;5061919;28;20029;-76
2022/04/07 03:29:06;;;;;;;6.68;1.48;;;;;;;8.92;85.41;98810.91;5045816;28;20024;-76
2022/04/07 03:31:31;;;;;;;10.77;2.35;;;;;;;8.94;85.25;98810.72;5027773;28;20067;-74
2022/04/07 03:33:57;;;;;;;7.03;1.35;;;;;;;8.92;84.28;98810.91;5061564;28;20090;-75
2022/04/07 03:36:22;;;;;;;7.55;1.05;;;;;;;9.04;83.89;98813.75;5028120;28;20020;-75
2022/04/07 03:38:51;;;;;;;6.72;1.50;;;;;;;8.98;83.86;98805.97;5025201;28;20029;-76
2022/04/07 03:41:19;;;;;;;14.70;1.58;;;;;;;8.93;83.46;98802.16;5058006;28;20024;-76
2022/04/07 03:43:45;;;;;;;11.50;1.58;;;;;;;8.96;83.33;98799.19;5042335;28;20044;-76
2022/04/07 03:46:11;;;;;;;4.57;0.93;;;;;;;8.99;83.43;98795.44;5059947;28;20025;-76
2022/04/07 03:48:37;;;;;;;5.35;1.45;;;;;;;8.98;83.10;98786.06;5056884;28;20140;-74
2022/04/07 03:51:02;;;;;;;6.18;1.40;;;;;;;8.93;83.02;98773.75;5040585;28;20417;-75
2022/04/07 03:53:28;;;;;;;8.70;1.40;;;;;;;8.87;83.07;98769.34;5059039;28;20036;-75
2022/04/07 03:55:54;;;;;;;6.88;1.33;;;;;;;8.97;83.27;98763.81;5040839;28;20040;-75
2022/04/07 03:58:19;;;;;;;4.55;1.30;;;;;;;8.88;83.53;98764.97;5039762;28;20123;-76
2022/04/07 04:00:45;;;;;;;6.18;1.13;;;;;;;8.93;84.04;98757.44;5058033;28;20032;-76
2022/04/07 04:03:10;;;;;;;5.97;1.10;;;;;;;8.85;84.53;98750.63;5028895;28;20032;-76
2022/04/07 04:05:36;;;;;;;6.10;1.48;;;;;;;8.80;85.35;98741.88;5043225;28;20540;-75
2022/04/07 04:08:01;;;;;;;4.65;1.20;;;;;;;8.92;85.38;98748.88;5027431;28;20040;-76
2022/04/07 04:10:27;;;;;;;2.95;1.23;;;;;;;8.89;85.52;98741.53;5048854;28;20555;-76
2022/04/07 04:12:52;;;;;;;6.18;1.60;;;;;;;8.90;85.36;98735.34;5057162;28;20028;-75
2022/04/07 04:15:18;;;;;;;5.25;1.52;;;;;;;9.06;85.35;98728.22;5036004;28;20130;-75
2022/04/07 04:17:44;;;;;;;6.60;1.52;;;;;;;8.91;86.24;98734.38;5055692;28;20036;-76
2022/04/07 04:20:13;;;;;;;6.32;1.48;;;;;;;8.83;88.03;98731.16;5059259;28;20029;-75
2022/04/07 04:22:39;;;;;;;6.75;1.60;;;;;;;8.84;89.70;98728.38;5058425;28;20028;-76
2022/04/07 04:25:05;;;;;;;4.88;1.40;;;;;;;8.84;90.90;98728.38;5056939;28;20025;-75
2022/04/07 04:27:30;;;;;;;5.90;1.30;;;;;;;8.82;91.83;98720.03;5058212;28;20483;-76
2022/04/07 04:29:56;;;;;;;4.97;1.83;;;;;;;8.70;93.05;98726.72;5054698;28;20035;-75
2022/04/07 04:32:22;;;;;;;5.78;1.83;;;;;;;8.69;93.88;98725.94;5046313;28;20036;-76
2022/04/07 04:34:47;;;;;;;4.28;1.33;;;;;;;8.66;93.91;98715.19;5049329;28;20867;-76
2022/04/07 04:37:13;;;;;;;4.05;1.90;;;;;;;8.69;94.83;98707.84;5048952;28;20028;-77
2022/04/07 04:39:38;;;;;;;4.70;2.00;;;;;;;8.59;95.75;98715.19;5027123;28;20623;-77
2022/04/07 04:42:05;;;;;;;5.28;1.58;;;;;;;8.60;97.52;98701.28;5044179;28;20036;-77
2022/04/07 04:44:30;;;;;;;3.63;1.88;;;;;;;8.55;98.45;98701.03;5047188;28;20527;-78
2022/04/07 04:46:55;;;;;;;4.47;1.92;;;;;;;8.49;99.08;98692.28;5045154;28;20216;-78
2022/04/07 04:49:21;;;;;;;4.00;1.80;;;;;;;8.43;99.75;98676.78;5028121;28;20037;-77
2022/04/07 04:51:47;;;;;;;5.97;2.00;;;;;;;8.39;100.00;98666.00;5059471;28;20024;-78
2022/04/07 04:54:13;;;;;;;8.23;1.90;;;;;;;8.44;100.00;98668.03;5061125;28;20028;-76
2022/04/07 04:56:40;;;;;;;4.18;1.90;;;;;;;8.45;100.00;98652.34;5059312;28;20112;-77
2022/04/07 04:59:05;;;;;;;4.38;2.15;;;;;;;8.36;100.00;98637.97;5034773;28;20086;-78
2022/04/07 05:01:30;;;;;;;2.90;1.80;;;;;;;8.30;100.00;98633.59;5061471;28;20060;-77
2022/04/07 05:03:56;;;;;;;6.82;2.03;;;;;;;8.44;100.00;98627.53;5045350;28;20028;-78
2022/04/07 05:06:21;;;;;;;7.60;2.42;;;;;;;8.45;100.00;98612.81;5029902;28;20044;-78
2022/04/07 05:08:47;;;;;;;7.15;1.98;;;;;;;8.43;100.00;98605.25;5044327;28;20029;-77
2022/04/07 05:11:12;;;;;;;12.38;2.58;;;;;;;8.41;100.00;98599.47;5043850;28;20036;-76
2022/04/07 05:13:38;;;;;;;4.88;2.03;;;;;;;8.49;100.00;98586.38;5046553;28;20078;-76
2022/04/07 05:16:04;;;;;;;5.68;1.98;;;;;;;8.46;99.65;98586.78;5056459;28;21076;-77
2022/04/07 05:18:29;;;;;;;6.30;2.15;;;;;;;8.44;100.00;98587.97;5059480;28;20605;-76
2022/04/07 05:20:54;;;;;;;5.10;2.47;;;;;;;8.47;100.00;98587.56;5043484;28;20052;-77
2022/04/07 05:23:20;;;;;;;3.05;1.70;;;;;;;8.45;100.00;98590.34;5043152;28;20032;-77
2022/04/07 05:25:45;;;;;;;5.15;1.75;;;;;;;8.56;99.35;98582.03;5042236;28;20044;-76
2022/04/07 05:28:11;;;;;;;2.80;1.27;;;;;;;8.65;98.68;98580.06;5042667;28;20063;-75
2022/04/07 05:30:36;;;;;;;4.13;1.60;;;;;;;8.56;98.89;98579.44;5041464;28;20025;-76
2022/04/07 05:33:02;;;;;;;4.72;1.50;;;;;;;8.63;98.36;98576.09;5043329;28;20038;-76
2022/04/07 05:35:28;;;;;;;2.20;1.10;;;;;;;8.61;97.74;98559.97;5060836;28;20823;-76
2022/04/07 05:37:59;;;;;;;2.92;1.10;;;;;;;8.73;97.23;98554.03;5060814;28;20043;-76
2022/04/07 05:40:24;;;;;;;2.92;1.15;;;;;;;8.64;97.32;98554.41;5056149;28;20150;-77
2022/04/07 05:42:49;;;;;;;3.35;1.13;;;;;;;8.67;97.31;98549.66;5059318;28;20035;-75
2022/04/07 05:45:15;;;;;;;4.80;1.42;;;;;;;8.63;97.72;98548.47;5046385;28;20048;-76
2022/04/07 05:47:40;;;;;;;3.42;1.10;;;;;;;8.68;97.99;98553.84;5044926;28;20039;-76
2022/04/07 05:50:07;;;;;;;4.63;1.52;;;;;;;8.68;97.81;98537.53;5061387;28;20029;-76
2022/04/07 05:52:32;;;;;;;2.22;1.10;;;;;;;8.68;98.37;98525.41;5029930;28;20032;-78
2022/04/07 05:54:58;;;;;;;6.63;1.60;;;;;;;8.65;98.35;98528.38;5026315;28;20504;-78
2022/04/07 05:57:26;;;;;;;4.88;1.40;;;;;;;8.67;98.73;98518.66;5059233;28;20036;-78
2022/04/07 05:59:52;;;;;;;4.65;1.30;;;;;;;8.57;98.77;98533.75;5038794;28;20128;-76
2022/04/07 06:02:17;;;;;;;4.03;1.50;;;;;;;8.58;98.19;98528.38;5043201;28;20379;-77
2022/04/07 06:04:42;;;;;;;4.43;1.40;;;;;;;8.56;97.22;98514.06;5042252;28;20355;-79
2022/04/07 06:07:08;;;;;;;5.68;1.30;;;;;;;8.52;96.20;98510.31;5028498;28;20036;-79
2022/04/07 06:09:35;;;;;;;4.20;1.20;;;;;;;8.54;96.60;98508.31;5042959;28;20318;-77
2022/04/07 06:12:00;;;;;;;5.10;1.17;;;;;;;8.48;95.49;98493.63;5039409;28;20252;-78
2022/04/07 06:14:26;;;;;;;7.30;1.33;;;;;;;8.46;95.81;98475.72;5027671;28;20060;-78
2022/04/07 06:16:51;;;;;;;3.85;1.40;;;;;;;8.46;95.88;98464.63;5023581;28;20456;-78
2022/04/07 06:19:17;;;;;;;7.55;1.00;;;;;;;8.51;96.14;98475.94;5041718;28;20055;-79
2022/04/07 06:21:43;;;;;;;4.05;1.10;;;;;;;8.49;95.46;98461.63;5028180;28;20396;-81
2022/04/07 06:24:08;;;;;;;5.72;1.00;;;;;;;8.56;94.89;98452.88;5028478;28;20311;-77
2022/04/07 06:26:34;;;;;;;4.60;1.08;;;;;;;8.54;94.87;98441.94;5038043;28;20120;-77
2022/04/07 06:29:00;;;;;;;2.05;0.65;;;;;;;8.65;95.13;98429.44;5022762;28;20475;-76
2022/04/07 06:31:26;;;;;;;6.68;0.88;;;;;;;8.60;93.82;98406.75;5037907;28;20429;-80
2022/04/07 06:33:51;;;;;;;2.13;0.75;;;;;;;8.67;94.13;98404.97;5053952;28;20120;-80
2022/04/07 06:36:17;;;;;;;4.20;1.05;;;;;;;8.73;93.14;98395.63;5042042;28;20048;-79
2022/04/07 06:38:42;;;;;;;4.22;1.02;;;;;;;8.82;93.36;98373.72;5036500;28;20041;-79
2022/04/07 06:41:08;;;;;;;3.65;1.10;;;;;;;8.85;93.43;98385.44;5026622;28;20094;-80
2022/04/07 06:43:33;;;;;;;8.98;1.50;;;;;;;8.86;92.60;98384.47;5039382;28;20417;-78
2022/04/07 06:45:58;;;;;;;5.40;1.10;;;;;;;8.82;93.33;98375.53;5036668;28;20024;-79
2022/04/07 06:48:24;;;;;;;4.68;1.02;;;;;;;8.91;92.81;98362.19;5039771;28;20033;-79
2022/04/07 06:50:49;;;;;;;5.63;1.20;;;;;;;8.98;92.89;98356.97;5041097;28;20490;-77
2022/04/07 06:53:15;;;;;;;6.03;1.00;;;;;;;9.03;93.25;98346.81;5022926;28;20550;-78
2022/04/07 06:55:40;;;;;;;2.78;1.13;;;;;;;9.14;93.39;98337.63;5041010;28;20726;-78
2022/04/07 06:58:08;;;;;;;3.28;0.90;;;;;;;9.10;92.19;98329.50;5023396;28;20501;-78
2022/04/07 07:00:40;;;;;;;3.78;1.00;;;;;;;9.14;92.39;98315.16;5055242;28;20040;-78
2022/04/07 07:03:06;;;;;;;2.35;0.85;;;;;;;9.05;93.10;98310.44;5055658;28;21237;-78
2022/04/07 07:05:35;;;;;;;5.05;1.20;;;;;;;9.13;92.88;98300.63;5040121;28;20047;-78
2022/04/07 07:08:18;;;;;;;2.08;1.00;;;;;;;9.18;92.51;98281.13;5039112;28;20434;-77
2022/04/07 07:10:48;;;;;;;1.40;0.80;;;;;;;9.14;92.47;98283.34;5040278;28;20214;-78
2022/04/07 07:13:16;;;;;;;3.13;1.00;;;;;;;9.18;91.82;98271.56;5056303;28;20043;-78
2022/04/07 07:15:42;;;;;;;4.85;0.57;;;;;;;9.13;92.85;98271.41;5039031;28;20076;-78
2022/04/07 07:18:08;;;;;;;3.00;0.65;;;;;;;9.14;93.02;98263.44;5039564;28;20305;-77
2022/04/07 07:20:34;;;;;;;1.63;0.50;;;;;;;9.30;92.64;98259.53;5024114;28;20528;-78
2022/04/07 07:23:00;;;;;;;4.63;0.88;;;;;;;9.25;92.27;98243.88;5038188;28;20322;-78
2022/04/07 07:25:25;;;;;;;10.32;1.55;;;;;;;9.35;92.17;98246.78;5020588;28;20174;-79
2022/04/07 07:27:51;;;;;;;1.75;1.05;;;;;;;9.32;92.33;98234.28;5055710;28;21807;-78
2022/04/07 07:30:17;;;;;;;0.88;0.55;;;;;;;9.23;92.24;98229.56;5039595;28;20132;-76
2022/04/07 07:32:45;;;;;;;2.15;0.75;;;;;;;9.23;93.20;98232.16;5023360;28;20024;-78
2022/04/07 07:35:11;;;;;;;1.58;0.65;;;;;;;9.32;93.21;98205.84;5039903;28;20036;-79
2022/04/07 07:37:38;;;;;;;2.60;0.68;;;;;;;9.34;93.97;98198.66;5039162;28;20596;-80
2022/04/07 07:40:08;;;;;;;2.88;0.40;;;;;;;9.40;94.70;98184.09;5027020;28;20113;-81
2022/04/07 07:42:36;;;;;;;3.75;0.90;;;;;;;9.58;94.59;98183.34;5038867;28;20085;-82
2022/04/07 07:45:03;;;;;;;3.60;0.60;;;;;;;9.74;93.80;98176.84;5039979;28;20020;-80
2022/04/07 07:47:28;;;;;;;2.92;0.65;;;;;;;9.59;93.58;98192.69;5041116;28;20182;-80
2022/04/07 07:49:54;;;;;;;3.88;0.57;;;;;;;9.62;94.42;98183.69;5038219;28;20480;-81
2022/04/07 07:52:19;;;;;;;2.33;0.50;;;;;;;9.54;94.65;98187.34;5040555;28;20040;-82
2022/04/07 07:54:45;;;;;;;1.60;0.65;;;;;;;9.38;96.07;98168.00;5039258;28;20744;-80
2022/04/07 07:57:10;;;;;;;5.80;0.75;;;;;;;9.32;96.56;98145.56;5040175;28;20786;-81
2022/04/07 07:59:36;;;;;;;2.60;0.85;;;;;;;9.29;97.73;98136.44;5038032;28;20032;-81
2022/04/07 08:02:01;;;;;;;1.30;0.70;;;;;;;9.39;97.73;98141.13;5024772;28;20170;-78
2022/04/07 08:04:27;;;;;;;2.30;0.60;;;;;;;9.47;98.32;98132.28;5041574;28;20028;-80
2022/04/07 08:06:52;;;;;;;1.95;0.52;;;;;;;9.49;97.90;98131.09;5058898;28;20040;-81
2022/04/07 08:09:18;;;;;;;2.90;0.60;;;;;;;9.63;97.91;98125.78;5045183;28;20141;-80
2022/04/07 08:11:44;;;;;;;5.10;0.70;;;;;;;9.75;98.10;98111.91;5028382;28;20032;-81
2022/04/07 08:14:09;;;;;;;2.47;0.55;;;;;;;9.85;97.54;98101.06;5028677;28;20028;-80
2022/04/07 08:16:36;;;;;;;3.28;0.95;;;;;;;9.84;96.09;98098.69;5045172;28;20432;-79
2022/04/07 08:19:01;;;;;;;3.47;0.82;;;;;;;9.97;96.67;98097.75;5041841;28;20409;-80
2022/04/07 08:21:27;;;;;;;3.80;0.60;;;;;;;10.02;96.17;98077.97;5046825;28;20034;-75
2022/04/07 08:23:53;;;;;;;1.40;0.80;;;;;;;10.10;95.97;98087.22;5023708;28;20033;-78
2022/04/07 08:26:19;;;;;;;0.47;0.38;;;;;;;10.05;95.97;98056.81;5023235;28;20530;-79
2022/04/07 08:28:45;;;;;;;1.20;0.75;;;;;;;10.29;95.12;98062.88;5058261;28;20120;-81
2022/04/07 08:31:10;;;;;;;3.00;0.70;;;;;;;10.42;94.81;98059.34;5040256;28;20033;-80
2022/04/07 08:33:36;;;;;;;0.70;0.40;;;;;;;10.42;93.48;98051.56;5039708;28;20043;-80
2022/04/07 08:36:01;;;;;;;1.80;0.80;;;;;;;10.29;94.60;98041.38;5041077;28;20033;-78
2022/04/07 08:38:26;;;;;;;1.25;0.47;;;;;;;10.31;95.46;98050.50;5026530;28;20820;-77
2022/04/07 08:40:54;;;;;;;2.50;0.65;;;;;;;10.32;96.04;98064.25;5042290;28;20320;-78
2022/04/07 08:43:20;;;;;;;0.93;0.50;;;;;;;10.24;96.16;98062.72;5023179;28;20079;-82
2022/04/07 08:45:45;;;;;;;0.35;0.30;;;;;;;10.17;97.06;98050.88;5056233;28;20037;-79
2022/04/07 08:48:12;;;;;;;0.25;0.25;;;;;;;10.14;97.20;98052.13;5041546;28;20060;-80
2022/04/07 08:50:40;;;;;;;1.95;0.30;;;;;;;10.32;96.58;98049.53;5043604;28;20033;-80
2022/04/07 08:53:06;;;;;;;0.82;0.30;;;;;;;10.38;96.56;98021.13;5026816;28;20036;-80
2022/04/07 08:55:33;;;;;;;1.00;0.30;;;;;;;10.36;96.03;98060.22;5043274;28;20046;-79
2022/04/07 08:57:58;;;;;;;0.70;0.30;;;;;;;10.41;95.95;98052.56;5028384;28;20542;-79
2022/04/07 09:00:24;;;;;;;0.32;0.30;;;;;;;10.46;97.03;98042.34;5056716;28;20037;-78
2022/04/07 09:02:52;;;;;;;5.57;0.50;;;;;;;10.58;97.46;98026.81;5056505;28;20046;-79
2022/04/07 09:05:25;;;;;;;7.45;0.85;;;;;;;10.76;97.34;98041.50;5056292;28;20040;-80
2022/04/07 09:07:52;;;;;;;5.28;1.63;;;;;;;10.76;97.44;98043.31;5043034;28;20071;-80
2022/04/07 09:10:19;;;;;;;2.25;0.60;;;;;;;10.62;98.54;98040.88;5027844;28;20057;-82
2022/04/07 09:12:45;;;;;;;1.88;0.70;;;;;;;10.57;99.11;98040.78;5060007;28;20039;-82
2022/04/07 09:15:13;;;;;;;3.17;0.47;;;;;;;10.42;99.21;98041.22;5043426;28;20028;-83
2022/04/07 09:18:01;;;;;;;1.73;0.73;;;;;;;10.39;100.00;98090.84;5027775;28;20238;-83
2022/04/07 09:20:27;;;;;;;5.38;1.20;;;;;;;10.18;100.00;98097.28;5056817;28;20488;-83
2022/04/07 09:23:00;;;;;;;4.18;0.57;;;;;;;9.87;100.00;98130.13;5040903;28;20040;-83
2022/04/07 09:25:27;;;;;;;3.33;0.60;;;;;;;9.59;100.00;98137.56;5028372;28;20028;-78
2022/04/07 09:27:57;;;;;;;13.90;1.65;;;;;;;9.51;100.00;98172.25;5042122;28;20040;-81
2022/04/07 09:30:24;;;;;;;1.25;0.60;;;;;;;9.29;100.00;98182.19;5061580;28;20047;-81
2022/04/07 09:32:49;;;;;;;2.53;0.60;;;;;;;9.23;100.00;98164.94;5027627;28;20032;-81
2022/04/07 09:35:15;;;;;;;1.27;0.50;;;;;;;9.12;100.00;98169.78;5059204;28;20024;-82
2022/04/07 09:37:42;;;;;;;1.52;0.50;;;;;;;9.07;100.00;98159.28;5040195;28;20478;-80
2022/04/07 09:40:12;;;;;;;2.22;0.63;;;;;;;8.93;100.00;98158.59;5041751;28;20020;-81
2022/04/07 09:42:38;;;;;;;2.60;0.65;;;;;;;8.90;100.00;98171.13;5041682;28;20135;-80
2022/04/07 09:45:07;;;;;;;1.95;0.60;;;;;;;8.94;100.00;98170.50;5024474;28;20032;-80
2022/04/07 09:47:37;;;;;;;2.17;0.60;;;;;;;8.95;100.00;98160.97;5028689;28;20025;-82
2022/04/07 09:50:05;;;;;;;1.23;0.60;;;;;;;8.92;100.00;98157.00;5038447;28;20037;-79
2022/04/07 09:52:30;;;;;;;2.78;0.70;;;;;;;8.84;100.00;98171.97;5056185;28;20386;-81
2022/04/07 09:55:02;;;;;;;3.17;0.90;;;;;;;8.80;100.00;98163.03;5025658;28;20032;-79
2022/04/07 09:57:29;;;;;;;1.45;0.70;;;;;;;8.89;100.00;98151.44;5020497;28;20033;-79
2022/04/07 09:59:56;;;;;;;2.15;0.68;;;;;;;9.00;100.00;98174.03;5038029;28;20033;-81
2022/04/07 10:02:23;;;;;;;2.38;0.68;;;;;;;9.02;100.00;98176.41;5027833;28;20136;-78
2022/04/07 10:04:50;;;;;;;2.47;0.60;;;;;;;9.02;100.00;98177.19;5040745;28;20067;-78
2022/04/07 10:07:15;;;;;;;0.77;0.40;;;;;;;9.01;100.00;98167.09;5039543;28;20028;-80
2022/04/07 10:09:42;;;;;;;2.13;0.85;;;;;;;9.07;100.00;98171.41;5025918;28;20766;-79
2022/04/07 10:12:11;;;;;;;3.40;0.77;;;;;;;9.22;100.00;98155.59;5025032;28;20032;-80
2022/04/07 10:14:37;;;;;;;1.30;0.75;;;;;;;9.30;100.00;98137.22;5039467;28;20063;-78
2022/04/07 10:17:04;;;;;;;1.92;0.52;;;;;;;9.33;98.36;98136.81;5026191;28;20464;-77
2022/04/07 10:19:36;;;;;;;2.17;0.60;;;;;;;9.55;98.63;98140.59;5055949;28;20492;-78
2022/04/07 10:22:17;;;;;;;1.90;0.50;;;;;;;9.69;97.17;98143.03;5042368;28;20083;-79
2022/04/07 10:24:55;;;;;;;1.88;0.43;;;;;;;9.82;95.18;98134.34;5026443;28;20041;-77
2022/04/07 10:27:23;;;;;;;2.35;0.60;;;;;;;9.99;94.18;98144.91;5052823;28;20043;-77
2022/04/07 10:30:09;;;;;;;1.00;0.40;;;;;;;10.31;92.04;98132.63;5027136;28;20035;-78
2022/04/07 10:32:36;;;;;;;2.78;0.55;;;;;;;10.52;88.55;98139.91;5039520;28;20040;-78
2022/04/07 10:35:02;;;;;;;3.72;0.40;;;;;;;10.68;86.75;98138.50;5037456;28;20021;-77
2022/04/07 10:37:39;;;;;;;1.88;0.40;;;;;;;10.78;86.48;98142.34;5041103;28;20036;-77
2022/04/07 10:40:34;;;;;;;2.10;0.60;;;;;;;10.60;85.19;98128.44;5039173;28;20050;-77
2022/04/07 10:43:14;;;;;;;3.78;0.70;;;;;;;10.87;85.46;98123.66;5056058;28;20033;-76
2022/04/07 10:46:09;;;;;;;0.90;0.63;;;;;;;10.94;83.03;98149.47;5056907;28;20028;-76
2022/04/07 10:48:37;;;;;;;1.17;0.50;;;;;;;11.09;82.00;98144.69;5022026;28;20052;-79
2022/04/07 10:51:08;;;;;;;6.47;0.55;;;;;;;11.14;78.17;98161.38;5060029;28;20462;-75
2022/04/07 10:53:35;;;;;;;3.25;0.60;;;;;;;11.29;76.01;98151.34;5039825;28;20097;-76
2022/04/07 10:56:10;;;;;;;1.33;0.50;;;;;;;11.23;72.36;98152.25;5036258;28;20024;-76
2022/04/07 10:58:44;;;;;;;1.80;0.32;;;;;;;11.18;72.22;98162.50;5055064;28;20618;-79
2022/04/07 11:01:14;;;;;;;2.50;0.63;;;;;;;11.36;76.35;98156.41;5034601;28;20148;-75
2022/04/07 11:03:41;;;;;;;1.17;0.52;;;;;;;11.73;78.39;98153.59;5039586;28;20093;-76
2022/04/07 11:06:07;;;;;;;3.03;0.50;;;;;;;11.96;73.95;98155.38;5042781;28;20086;-75
2022/04/07 11:08:33;;;;;;;1.35;0.50;;;;;;;12.07;74.34;98172.75;5037261;28;20028;-76
2022/04/07 11:10:59;;;;;;;9.85;0.60;;;;;;;11.75;68.83;98169.72;5054548;28;20021;-76
2022/04/07 11:13:45;;;;;;;5.25;0.60;;;;;;;11.84;69.99;98166.53;5055658;28;20036;-77
2022/04/07 11:16:30;;;;;;;4.07;0.50;;;;;;;11.97;69.13;98175.94;5036166;28;20041;-75
2022/04/07 11:19:15;;;;;;;1.23;0.60;;;;;;;11.97;67.07;98149.97;5053437;28;20129;-76
2022/04/07 11:21:48;;;;;;;1.95;0.40;;;;;;;12.19;67.91;98167.53;5038832;28;20090;-75
2022/04/07 11:24:24;;;;;;;6.28;1.70;;;;;;;12.24;64.43;98176.22;5053381;28;20033;-75
2022/04/07 11:26:52;;;;;;;4.00;0.60;;;;;;;12.39;65.42;98167.91;5057928;28;20070;-76
2022/04/07 11:29:32;;;;;;;1.75;0.63;;;;;;;12.66;63.74;98162.97;5053369;28;20044;-77
2022/04/07 11:32:08;;;;;;;3.97;1.02;;;;;;;12.76;62.94;98193.53;5039637;28;20033;-76
2022/04/07 11:34:39;;;;;;;2.63;1.00;;;;;;;12.96;63.86;98195.72;5052155;28;20127;-76
2022/04/07 11:37:09;;;;;;;5.25;0.70;;;;;;;13.00;59.59;98196.81;5056563;28;20044;-76
2022/04/07 11:39:39;;;;;;;2.20;0.43;;;;;;;12.96;59.06;98197.50;5061514;28;20480;-76